Latest Coastal Weather Observations for Low Isles

IDQ60701

Issued at 9:32 am EST Wednesday 16 October 2019 (issued every 10 minutes, with the page automatically refreshed every 10 minutes)

About coastal observations | Map of coastal stations | Coastal observations for QLD | Marine services | Other Formats
Station Details ID: 031037 Name: LOW ISLES LIGHTHOUSE Lat: -16.38 Lon: 145.56 Height: 2.9 m
Data from the previous 72 hours. | See also: Recent months at Low Isles
Date/Time
EST
Wind Sea
Height
m
Swell Vis
km
Cloud Weather Temp
°C
Press
hPa
Rain since
9am
mm
Dir  Spd
kts
Gust
kts
Height
m
Period
s
Dir
16/09:30am WSW 5 7 - - - - - - - 26.1 1016.5 0.0
16/09:00am WSW 6 7 - - - - - - - 26.2 1016.5 0.0
16/08:30am WSW 7 8 - - - - - - - 24.6 1016.5 0.0
16/08:00am WSW 7 8 - - - - - - - 23.2 1016.1 0.0
16/07:30am WSW 6 8 - - - - - - - 23.0 1015.8 0.0
16/07:00am W 7 7 - - - - - - - 22.9 1015.3 0.0
16/06:30am W 7 8 - - - - - - - 22.5 1014.8 0.0
16/06:00am WNW 6 7 - - - - - - - 22.1 1014.2 0.0
16/05:30am W 7 7 - - - - - - - 22.6 1013.8 0.0
16/05:00am W 8 8 - - - - - - - 22.4 1013.6 0.0
16/04:30am WSW 8 8 - - - - - - - 22.2 1013.3 0.0
16/04:00am WSW 7 9 - - - - - - - 22.2 1013.1 0.0
16/03:30am WSW 7 8 - - - - - - - 22.3 1012.9 0.0
16/03:00am W 7 9 - - - - - - - 22.4 1012.7 0.0
16/02:30am WSW 7 8 - - - - - - - 22.6 1012.6 0.0
16/02:00am WNW 6 7 - - - - - - - 22.9 1012.8 0.0
16/01:30am WNW 6 8 - - - - - - - 23.0 1012.9 0.0
16/01:00am W 5 6 - - - - - - - 22.9 1013.3 0.0
16/12:30am W 4 6 - - - - - - - 23.0 1013.6 0.0
16/12:00am N 5 6 - - - - - - - 22.5 1013.6 0.0
 
Date/Time
EST
Wind Sea
Height
m
Swell Vis
km
Cloud Weather Temp
°C
Press
hPa
Rain since
9am
mm
Dir  Spd
kts
Gust
kts
Height
m
Period
s
Dir
15/11:30pm N 5 6 - - - - - - - 22.5 1013.7 0.0
15/11:00pm NNW 3 5 - - - - - - - 22.6 1013.6 0.0
15/10:30pm N 4 5 - - - - - - - 22.6 1013.7 0.0
15/10:00pm NNE 4 4 - - - - - - - 22.6 1013.9 0.0
15/09:30pm NE 4 5 - - - - - - - 22.8 1013.7 0.0
15/09:00pm NNE 5 7 - - - - - - - 23.0 1013.5 0.0
15/08:30pm NNE 5 7 - - - - - - - 23.2 1013.2 0.0
15/08:00pm NNE 6 7 - - - - - - - 23.6 1013.1 0.0
15/07:30pm NNE 6 8 - - - - - - - 23.9 1012.4 0.0
15/07:00pm NNE 6 7 - - - - - - - 24.0 1012.1 0.0
15/06:30pm NNE 5 7 - - - - - - - 24.7 1012.0 0.0
15/06:00pm NNE 6 7 - - - - - - - 25.7 1011.8 0.0
15/05:30pm NNE 7 8 - - - - - - - 26.7 1012.0 0.0
15/05:00pm NE 6 8 - - - - - - - 27.2 1011.9 0.0
15/04:30pm NE 7 9 - - - - - - - 27.2 1011.8 0.0
15/04:00pm NE 7 9 - - - - - - - 28.5 1011.9 0.0
15/03:30pm NE 9 10 - - - - - - - 29.2 1012.1 0.0
15/03:00pm NE 9 10 - - - - - - - 30.1 1012.3 0.0
15/02:30pm ENE 8 10 - - - - - - - 30.2 1012.6 0.0
15/02:00pm ENE 8 9 - - - - - - - 30.6 1012.9 0.0
15/01:30pm NE 8 10 - - - - - - - 30.3 1013.4 0.0
15/01:00pm NE 7 8 - - - - - - - 30.7 1014.1 0.0
15/12:30pm CALM 0 3 - - - - - - - 29.3 1014.6 0.0
15/12:00pm CALM 0 0 - - - - - - - 28.4 1015.2 0.0
15/11:30am CALM 0 0 - - - - - - - 27.4 1015.7 0.0
15/11:00am WSW 4 5 - - - - - - - 26.2 1016.0 0.0
15/10:30am SW 4 5 - - - - - - - 25.9 1016.2 0.0
15/10:00am SW 4 5 - - - - - - - 25.7 1016.4 0.0
15/09:30am SW 4 5 - - - - - - - 26.0 1016.7 0.0
15/09:00am WSW 5 6 - - - - - - - 26.4 1016.9 0.0
15/08:30am WNW 6 7 - - - - - - - 25.2 1016.9 0.0
15/08:00am WSW 7 8 - - - - - - - 24.1 1016.7 0.0
15/07:30am SW 7 8 - - - - - - - 23.8 1016.5 0.0
15/07:00am SW 7 9 - - - - - - - 23.6 1016.3 0.0
15/06:30am SSE 6 8 - - - - - - - 23.5 1015.9 0.0
15/06:00am ESE 6 7 - - - - - - - 22.0 1015.7 0.0
15/05:30am E 5 6 - - - - - - - 21.8 1015.6 0.0
15/05:00am ESE 6 7 - - - - - - - 21.9 1015.3 0.0
15/04:30am ESE 7 8 - - - - - - - 22.2 1015.1 0.0
15/04:00am ESE 7 8 - - - - - - - 22.5 1015.0 0.0
15/03:30am E 6 7 - - - - - - - 21.7 1014.9 0.0
15/03:00am ESE 6 7 - - - - - - - 21.7 1014.9 0.0
15/02:30am ESE 6 7 - - - - - - - 21.8 1015.1 0.0
15/02:00am ESE 7 7 - - - - - - - 21.9 1015.4 0.0
15/01:30am ESE 6 7 - - - - - - - 22.4 1015.5 0.0
15/01:00am ESE 7 8 - - - - - - - 22.6 1015.8 0.0
15/12:30am ESE 6 7 - - - - - - - 22.2 1016.0 0.0
15/12:00am ESE 6 7 - - - - - - - 22.2 1016.3 0.0
 
Date/Time
EST
Wind Sea
Height
m
Swell Vis
km
Cloud Weather Temp
°C
Press
hPa
Rain since
9am
mm
Dir  Spd
kts
Gust
kts
Height
m
Period
s
Dir
14/11:30pm ESE 6 7 - - - - - - - 22.2 1016.4 0.0
14/11:00pm E 6 7 - - - - - - - 22.5 1016.5 0.0
14/10:30pm E 5 7 - - - - - - - 22.7 1016.6 0.0
14/10:00pm E 6 7 - - - - - - - 23.2 1016.4 0.0
14/09:30pm ESE 6 8 - - - - - - - 23.3 1016.3 0.0
14/09:00pm E 6 7 - - - - - - - 23.3 1016.1 0.0
14/08:30pm E 6 7 - - - - - - - 23.5 1015.8 0.0
14/08:00pm E 7 8 - - - - - - - 24.0 1015.5 0.0
14/07:30pm ENE 7 8 - - - - - - - 24.4 1015.4 0.0
14/07:00pm NE 7 8 - - - - - - - 24.8 1015.3 0.0
14/06:30pm ENE 6 8 - - - - - - - 25.3 1015.0 0.0
14/06:00pm E 5 7 - - - - - - - 26.0 1014.9 0.0
14/05:30pm E 5 7 - - - - - - - 26.6 1014.8 0.0
14/05:00pm E 6 8 - - - - - - - 27.3 1014.6 0.0
14/04:30pm ENE 7 8 - - - - - - - 27.9 1014.5 0.0
14/04:00pm E 7 10 - - - - - - - 28.8 1014.5 0.0
14/03:30pm SE 6 9 - - - - - - - 29.1 1014.6 0.0
14/03:00pm SE 7 9 - - - - - - - 29.0 1014.7 0.0
14/02:30pm ESE 7 9 - - - - - - - 28.7 1015.0 0.0
14/02:00pm SE 6 8 - - - - - - - 29.2 1015.2 0.0
14/01:30pm SE 6 8 - - - - - - - 28.7 1015.4 0.0
14/01:00pm E 5 7 - - - - - - - 29.8 1015.8 0.0
14/12:30pm ENE 5 7 - - - - - - - 30.5 1016.3 0.0
14/12:00pm ENE 4 6 - - - - - - - 29.9 1016.7 0.0
14/11:30am SE 6 7 - - - - - - - 29.6 1017.1 0.0
14/11:00am SE 6 7 - - - - - - - 29.4 1017.3 0.0
14/10:30am SE 7 8 - - - - - - - 28.8 1017.4 0.0
14/10:00am SE 8 9 - - - - - - - 27.7 1017.6 0.0
14/09:30am SE 7 9 - - - - - - - 28.6 1017.6 0.0
14/09:00am E 7 8 - - - - - - - 28.3 1017.6 0.0
14/08:30am ENE 6 8 - - - - - - - 27.2 1017.3 0.0
14/08:00am ENE 7 8 - - - - - - - 26.3 1017.1 0.0
14/07:30am NE 7 8 - - - - - - - 25.9 1016.8 0.0
14/07:00am NE 5 7 - - - - - - - 24.2 1016.3 0.0
14/06:30am ENE 5 6 - - - - - - - 23.2 1015.9 0.0
14/06:00am NE 7 8 - - - - - - - 23.1 1015.5 0.0
14/05:30am E 5 7 - - - - - - - 23.2 1015.2 0.0
14/05:00am ENE 6 8 - - - - - - - 23.0 1014.7 0.0
14/04:30am ENE 5 7 - - - - - - - 22.5 1014.6 0.0
14/04:00am ENE 6 7 - - - - - - - 22.5 1014.4 0.0
14/03:30am ENE 5 6 - - - - - - - 22.7 1014.3 0.0
14/03:00am NE 6 8 - - - - - - - 22.7 1014.4 0.0
14/02:30am NE 6 7 - - - - - - - 23.1 1014.5 0.0
14/02:00am ENE 5 6 - - - - - - - 22.9 1014.8 0.0
14/01:30am NE 6 8 - - - - - - - 22.9 1015.1 0.0
14/01:00am NNE 7 9 - - - - - - - 23.4 1015.3 0.0
14/12:30am NE 8 9 - - - - - - - 23.6 1015.8 0.0
14/12:00am NE 7 8 - - - - - - - 23.8 1016.1 0.0
 
Date/Time
EST
Wind Sea
Height
m
Swell Vis
km
Cloud Weather Temp
°C
Press
hPa
Rain since
9am
mm
Dir  Spd
kts
Gust
kts
Height
m
Period
s
Dir
13/11:30pm ENE 6 9 - - - - - - - 24.0 1016.3 0.0
13/11:00pm ENE 5 6 - - - - - - - 24.3 1016.4 0.0
13/10:30pm E 6 8 - - - - - - - 24.9 1016.4 0.0
13/10:00pm E 5 8 - - - - - - - 24.8 1016.1 0.0
13/09:30pm E 6 7 - - - - - - - 24.8 1015.8 0.0
13/09:00pm ESE 6 7 - - - - - - - 24.9 1015.7 0.0
13/08:30pm SE 6 7 - - - - - - - 25.1 1015.1 0.0
13/08:00pm SE 6 8 - - - - - - - 25.2 1014.6 0.0
13/07:30pm ESE 6 6 - - - - - - - 25.0 1014.4 0.0
13/07:00pm ESE 4 5 - - - - - - - 25.1 1014.0 0.0
13/06:30pm ESE 5 6 - - - - - - - 25.3 1013.6 0.0
13/06:00pm E 5 6 - - - - - - - 25.9 1013.3 0.0
13/05:30pm ESE 6 8 - - - - - - - 26.6 1013.1 0.0
13/05:00pm ESE 6 8 - - - - - - - 27.3 1012.9 0.0
13/04:30pm E 6 9 - - - - - - - 28.0 1012.8 0.0
13/04:00pm E 6 9 - - - - - - - 28.5 1012.7 0.0
13/03:30pm ENE 7 9 - - - - - - - 29.5 1012.9 0.0
13/03:00pm E 8 11 - - - - - - - 29.6 1013.1 0.0
13/02:30pm E 7 11 - - - - - - - 30.6 1013.3 0.0
13/02:00pm ENE 7 9 - - - - - - - 30.5 1013.7 0.0
13/01:30pm ENE 7 9 - - - - - - - 30.6 1014.0 0.0
13/01:00pm ENE 6 8 - - - - - - - 30.6 1014.3 0.0
13/12:30pm E 5 8 - - - - - - - 30.2 1014.7 0.0
13/12:00pm ENE 6 8 - - - - - - - 30.8 1015.2 0.0
13/11:30am ENE 6 8 - - - - - - - 30.5 1015.7 0.0
13/11:00am SE 7 9 - - - - - - - 30.0 1015.9 0.0
13/10:30am SE 8 9 - - - - - - - 29.1 1016.1 0.0
13/10:00am SE 6 7 - - - - - - - 29.1 1016.1 0.0

Other formats

Comma delimited format used in spreadsheet applications
http://www.bom.gov.au/fwo/IDQ60701/IDQ60701.94285.axf

JavaScript Object Notation format (JSON) in row-major order
http://www.bom.gov.au/fwo/IDQ60701/IDQ60701.94285.json

Data quality

Most of these data are generated automatically and are frequently updated. Quality checks on data are not normally performed. It is possible for incorrect values to appear. Refer to information at About Latest Weather Observations and please check the disclaimer before using these data.